Latest Coastal Weather Observations for Kiama

IDN60701

Issued at 1:51 pm EST Tuesday 31 May 2016 (issued every 10 minutes, with the page automatically refreshed every 10 minutes)

About coastal observations | Map of coastal stations | Coastal observations for NSW | Marine services | Other Formats
Station Details ID: 068242 Name: KIAMA (BOMBO HEADLAND) Lat: -34.65 Lon: 150.86 Height: 15.5 m
Data from the previous 72 hours. | See also: Recent months at Kiama
Date/Time
EST
Temp

°C
Wind Pressure Rain
since 9am
mm
Weather Cloud Vis
km
Sea
Height
m
Swell
Dir
 
Speed
knots
Gust
knots
hPa Trend Height
m
Period
s
Dir
31/01:30pm 14.8 SSW 8 10 - - 2.6 - - - - - - -
31/01:00pm 15.5 S 9 12 - - 0.8 - - - - - - -
31/12:30pm 15.5 SSW 7 9 - - 0.6 - - - - - - -
31/12:00pm 15.4 S 6 9 - - 0.2 Rain - - - - - -
31/11:30am 15.6 SSW 7 11 - - 0.0 - - - - - - -
31/11:00am 15.6 SSW 10 12 - - 0.0 - - - - - - -
31/10:30am 15.4 SSW 10 12 - - 0.0 - - - - - - -
31/10:00am 15.4 SSW 10 13 - - 0.0 - - - - - - -
31/09:30am 15.3 SSW 14 19 - - 0.0 - - - - - - -
31/09:00am 15.1 SSW 9 19 - - 0.0 - - - - - - -
31/08:30am 14.3 SW 6 9 - - 0.0 - - - - - - -
31/08:00am 13.8 SW 8 13 - - 0.0 - - - - - - -
31/07:30am 13.1 WSW 6 8 - - 0.0 - - - - - - -
31/07:00am 13.6 SW 7 11 - - 0.0 - - - - - - -
31/06:30am 14.0 SSW 12 15 - - 0.0 - - - - - - -
31/06:00am 13.8 SW 11 14 - - 0.0 - - - - - - -
31/05:30am 13.6 SW 11 17 - - 0.0 - - - - - - -
31/05:00am 14.2 SSW 14 19 - - 0.0 - - - - - - -
31/04:30am 13.3 WSW 6 9 - - 0.0 - - - - - - -
31/04:00am 12.9 WSW 5 7 - - 0.0 - - - - - - -
31/03:30am 13.4 SW 9 13 - - 0.0 - - - - - - -
31/03:00am 13.6 SW 8 11 - - 0.0 - - - - - - -
31/02:30am 13.6 SW 11 16 - - 0.0 - - - - - - -
31/02:00am 13.4 SW 5 11 - - 0.0 - - - - - - -
31/01:30am 12.7 W 6 8 - - 0.0 - - - - - - -
31/01:00am 13.6 SW 7 11 - - 0.0 - - - - - - -
31/12:30am 13.3 SW 6 11 - - 0.0 - - - - - - -
31/12:00am 13.4 WSW 3 5 - - 0.0 - - - - - - -
 
Date/Time
EST
Temp

°C
Wind Pressure Rain
since 9am
mm
Weather Cloud Vis
km
Sea
Height
m
Swell
Dir
 
Speed
knots
Gust
knots
hPa Trend Height
m
Period
s
Dir
30/11:30pm 13.4 WSW 4 7 - - 0.0 - - - - - - -
30/11:00pm 13.3 WSW 7 8 - - 0.0 - - - - - - -
30/10:30pm 13.5 SW 4 7 - - 0.0 - - - - - - -
30/10:00pm 13.9 SW 5 7 - - 0.0 - - - - - - -
30/09:30pm 13.9 SW 4 6 - - 0.0 - - - - - - -
30/09:00pm 14.9 SW 9 12 - - 0.0 - - - - - - -
30/08:30pm 14.7 WSW 5 7 - - 0.0 - - - - - - -
30/08:00pm 14.6 WSW 7 9 - - 0.0 - - - - - - -
30/07:30pm 14.2 WSW 7 10 - - 0.0 - - - - - - -
30/07:00pm 14.1 WSW 5 8 - - 0.0 - - - - - - -
30/06:30pm 14.1 WSW 7 9 - - 0.0 - - - - - - -
30/06:00pm 13.6 WSW 6 8 - - 0.0 - - - - - - -
30/05:30pm 14.0 WSW 5 7 - - 0.0 - - - - - - -
30/05:00pm 14.4 WSW 6 8 - - 0.0 - - - - - - -
30/04:30pm 15.5 SW 10 13 - - 0.0 - - - - - - -
30/04:00pm 16.4 SW 8 12 - - 0.0 - - - - - - -
30/03:30pm 16.6 SSW 9 12 - - 0.0 - - - - - - -
30/03:00pm 16.6 SSW 11 14 - - 0.0 - - - - - - -
30/02:30pm 16.7 SSW 11 15 - - 0.0 - - - - - - -
30/02:00pm 16.9 SSW 9 13 - - 0.0 - - - - - - -
30/01:30pm 16.6 SW 10 13 - - 0.0 - - - - - - -
30/01:00pm 16.6 SSW 9 14 - - 0.0 - - - - - - -
30/12:30pm 16.4 SSW 10 15 - - 0.0 - - - - - - -
30/12:00pm 16.0 SSW 10 15 - - 0.0 - - - - - - -
30/11:30am 15.9 SSW 10 14 - - 0.0 - - - - - - -
30/11:00am 16.0 SW 9 13 - - 0.0 - - - - - - -
30/10:30am 15.6 SSW 12 15 - - 0.0 - - - - - - -
30/10:00am 15.3 SSW 11 14 - - 0.0 - - - - - - -
30/09:30am 15.1 WSW 4 7 - - 0.0 - - - - - - -
30/09:00am 13.9 W 6 8 - - 0.0 - - - - - - -
30/08:30am 12.4 W 7 10 - - 0.0 - - - - - - -
30/08:00am 10.7 W 6 9 - - 0.0 - - - - - - -
30/07:30am 9.7 WNW 6 9 - - 0.0 - - - - - - -
30/07:00am 9.1 W 8 10 - - 0.0 - - - - - - -
30/06:30am 9.3 WNW 8 11 - - 0.0 - - - - - - -
30/06:00am 9.4 WNW 8 11 - - 0.0 - - - - - - -
30/05:30am 9.4 WNW 8 12 - - 0.0 - - - - - - -
30/05:00am 9.3 W 7 10 - - 0.0 - - - - - - -
30/04:30am 9.7 W 8 11 - - 0.0 - - - - - - -
30/04:00am 9.8 WNW 9 14 - - 0.0 - - - - - - -
30/03:30am 9.7 WNW 9 14 - - 0.0 - - - - - - -
30/03:00am 9.8 WNW 8 13 - - 0.0 - - - - - - -
30/02:30am 10.1 W 11 16 - - 0.0 - - - - - - -
30/02:00am 9.9 WNW 10 17 - - 0.0 - - - - - - -
30/01:30am 10.1 W 14 20 - - 0.0 - - - - - - -
30/01:00am 10.1 W 13 18 - - 0.0 - - - - - - -
30/12:30am 10.2 WNW 10 16 - - 0.0 - - - - - - -
30/12:00am 10.3 WNW 10 14 - - 0.0 - - - - - - -
 
Date/Time
EST
Temp

°C
Wind Pressure Rain
since 9am
mm
Weather Cloud Vis
km
Sea
Height
m
Swell
Dir
 
Speed
knots
Gust
knots
hPa Trend Height
m
Period
s
Dir
29/11:30pm 10.7 WNW 11 14 - - 0.0 - - - - - - -
29/11:00pm 10.7 WNW 11 16 - - 0.0 - - - - - - -
29/10:30pm 10.9 W 11 17 - - 0.0 - - - - - - -
29/10:00pm 11.1 WNW 11 17 - - 0.0 - - - - - - -
29/09:30pm 11.3 WNW 10 16 - - 0.0 - - - - - - -
29/09:00pm 12.1 WNW 9 14 - - 0.0 - - - - - - -
29/08:30pm 12.4 WNW 9 14 - - 0.0 - - - - - - -
29/08:00pm 12.9 W 11 17 - - 0.0 - - - - - - -
29/07:30pm 13.0 W 8 13 - - 0.0 - - - - - - -
29/07:00pm 13.3 W 11 15 - - 0.0 - - - - - - -
29/06:30pm 13.5 W 8 15 - - 0.0 - - - - - - -
29/06:00pm 13.5 W 6 11 - - 0.0 - - - - - - -
29/05:30pm 14.5 WSW 7 9 - - 0.0 - - - - - - -
29/05:00pm 14.3 WSW 6 9 - - 0.0 - - - - - - -
29/04:30pm 15.9 WSW 9 14 - - 0.0 - - - - - - -
29/04:00pm 16.8 WSW 9 12 - - 0.0 - - - - - - -
29/03:30pm 17.3 WSW 9 13 - - 0.0 - - - - - - -
29/03:00pm 17.6 SW 8 15 - - 0.0 - - - - - - -
29/02:30pm 17.6 SW 8 12 - - 0.0 - - - - - - -
29/02:00pm 17.7 SW 7 12 - - 0.0 - - - - - - -
29/01:30pm 17.4 SSW 8 12 - - 0.0 - - - - - - -
29/01:00pm 18.4 W 6 10 - - 0.0 - - - - - - -
29/12:30pm 17.9 W 6 9 - - 0.0 - - - - - - -
29/12:00pm 17.6 WNW 8 12 - - 0.0 - - - - - - -
29/11:30am 17.2 WNW 7 12 - - 0.0 - - - - - - -
29/11:00am 16.3 WNW 8 12 - - 0.0 - - - - - - -
29/10:30am 15.9 WNW 7 12 - - 0.0 - - - - - - -
29/10:00am 14.7 WNW 10 16 - - 0.0 - - - - - - -
29/09:30am 14.3 W 9 13 - - 0.0 - - - - - - -
29/09:00am 13.4 W 13 17 - - 1.4 - - - - - - -
29/08:30am 12.6 W 13 20 - - 1.4 - - - - - - -
29/08:00am 11.9 W 10 13 - - 1.4 - - - - - - -
29/07:30am 11.0 W 10 15 - - 1.4 - - - - - - -
29/07:00am 10.7 W 8 13 - - 1.4 - - - - - - -
29/06:30am 10.7 W 10 15 - - 1.4 - - - - - - -
29/06:00am 10.7 W 12 19 - - 1.4 - - - - - - -
29/05:30am 11.1 W 11 17 - - 1.4 - - - - - - -
29/05:00am 11.2 WNW 9 12 - - 1.4 - - - - - - -
29/04:30am 11.1 WNW 10 15 - - 1.4 - - - - - - -
29/04:00am 11.3 WSW 11 17 - - 1.4 - - - - - - -
29/03:30am 11.5 WSW 13 17 - - 1.4 - - - - - - -
29/03:00am 11.4 W 11 16 - - 1.4 - - - - - - -
29/02:30am 11.5 W 13 17 - - 1.4 - - - - - - -
29/02:00am 11.5 W 12 21 - - 1.4 - - - - - - -
29/01:30am 11.5 W 12 18 - - 1.4 - - - - - - -
29/01:00am 11.5 W 12 18 - - 1.4 - - - - - - -
29/12:30am 11.9 W 11 16 - - 1.4 - - - - - - -
29/12:00am 11.9 W 11 18 - - 1.4 - - - - - - -
 
Date/Time
EST
Temp

°C
Wind Pressure Rain
since 9am
mm
Weather Cloud Vis
km
Sea
Height
m
Swell
Dir
 
Speed
knots
Gust
knots
hPa Trend Height
m
Period
s
Dir
28/11:30pm 12.2 WNW 12 17 - - 1.4 - - - - - - -
28/11:00pm 12.1 W 11 18 - - 1.4 - - - - - - -
28/10:30pm 12.3 W 15 21 - - 1.4 - - - - - - -
28/10:00pm 12.4 W 15 21 - - 1.4 - - - - - - -
28/09:30pm 12.4 W 14 20 - - 1.4 - - - - - - -
28/09:00pm 12.4 W 12 20 - - 1.4 - - - - - - -
28/08:30pm 12.4 WNW 9 16 - - 1.4 - - - - - - -
28/08:00pm 12.5 WNW 8 12 - - 1.4 - - - - - - -
28/07:30pm 12.9 W 10 17 - - 1.4 - - - - - - -
28/07:00pm 13.3 W 12 19 - - 1.4 - - - - - - -
28/06:30pm 13.1 W 11 17 - - 1.4 - - - - - - -
28/06:00pm 13.1 W 9 12 - - 1.4 - - - - - - -
28/05:30pm 12.7 W 7 11 - - 1.4 - - - - - - -
28/05:00pm 12.8 W 9 14 - - 1.4 - - - - - - -
28/04:30pm 13.4 W 8 12 - - 1.4 - - - - - - -
28/04:00pm 13.7 W 7 11 - - 1.4 - - - - - - -
28/03:30pm 13.9 W 8 11 - - 1.4 - - - - - - -
28/03:00pm 13.9 W 7 10 - - 1.4 - - - - - - -
28/02:30pm 14.0 W 9 15 - - 1.4 - - - - - - -
28/02:00pm 13.7 W 11 16 - - 1.4 - - - - - - -

Other Formats:

Comma delimited format used in spreadsheet applications
http://www.bom.gov.au/fwo/IDN60701/IDN60701.95749.axf

JavaScript Object Notation format (JSON) in row-major order
http://www.bom.gov.au/fwo/IDN60701/IDN60701.95749.json